createdAt,value
2018-04-01T00:00:07.718Z,3.36
2018-04-01T00:10:05.927Z,3.36
2018-04-01T00:20:00.072Z,3.36
2018-04-01T00:29:58.509Z,3.36
2018-04-01T00:39:56.907Z,3.36
2018-04-01T00:49:53.604Z,3.36
2018-04-01T00:59:49.771Z,3.36
2018-04-01T01:09:48.430Z,3.35
2018-04-01T01:19:45.740Z,3.35
2018-04-01T01:29:44.154Z,3.35
2018-04-01T01:39:41.025Z,3.35
2018-04-01T01:49:37.218Z,3.34
2018-04-01T01:59:34.956Z,3.34
2018-04-01T02:09:32.714Z,3.34
2018-04-01T02:19:30.169Z,3.34
2018-04-01T02:29:27.968Z,3.34
2018-04-01T02:39:26.569Z,3.34
2018-04-01T02:49:23.516Z,3.34
2018-04-01T02:59:21.196Z,3.34
2018-04-01T03:09:20.326Z,3.34
2018-04-01T03:19:18.419Z,3.34
2018-04-01T03:29:16.026Z,3.34
2018-04-01T03:39:13.398Z,3.34
2018-04-01T03:49:12.427Z,3.34
2018-04-01T03:59:09.839Z,3.34
2018-04-01T04:09:04.951Z,3.34
2018-04-01T04:19:01.062Z,3.34
2018-04-01T04:28:58.411Z,3.34
2018-04-01T04:38:54.410Z,3.34
2018-04-01T04:48:52.507Z,3.34
2018-04-01T04:58:53.022Z,3.34
2018-04-01T05:08:51.151Z,3.35
2018-04-01T05:18:48.405Z,3.36
2018-04-01T05:28:26.849Z,3.37
2018-04-01T05:38:04.455Z,3.38
2018-04-01T05:47:41.418Z,3.39
2018-04-01T05:57:18.917Z,3.40
2018-04-01T06:06:55.984Z,3.41
2018-04-01T06:16:32.382Z,3.42
2018-04-01T06:26:09.383Z,3.43
2018-04-01T06:35:46.389Z,3.41
2018-04-01T06:45:23.567Z,3.40
2018-04-01T06:55:00.712Z,3.40
2018-04-01T07:04:37.278Z,3.40
2018-04-01T07:14:13.598Z,3.40
2018-04-01T07:24:09.491Z,3.40
2018-04-01T07:33:47.919Z,3.40
2018-04-01T07:43:24.462Z,3.40
2018-04-01T07:53:19.994Z,3.40
2018-04-01T08:02:59.845Z,3.41
2018-04-01T08:12:32.376Z,3.40
2018-04-01T08:22:01.255Z,3.40
2018-04-01T08:31:39.205Z,3.40
2018-04-01T08:41:14.937Z,3.40
2018-04-01T08:50:51.505Z,3.40
2018-04-01T09:00:28.726Z,3.40
2018-04-01T09:10:05.844Z,3.40
2018-04-01T09:19:43.029Z,3.40
2018-04-01T09:29:17.582Z,3.40
2018-04-01T09:38:54.536Z,3.40
2018-04-01T09:48:32.149Z,3.40
2018-04-01T09:58:08.730Z,3.40
2018-04-01T10:07:46.287Z,3.40
2018-04-01T10:17:23.330Z,3.40
2018-04-01T10:27:00.032Z,3.40
2018-04-01T10:36:37.144Z,3.41
2018-04-01T10:46:14.909Z,3.41
2018-04-01T10:55:52.061Z,3.41
2018-04-01T11:05:33.474Z,3.42
2018-04-01T11:15:03.007Z,3.42
2018-04-01T11:24:42.696Z,3.42
2018-04-01T11:34:11.307Z,3.42
2018-04-01T11:43:47.950Z,3.42
2018-04-01T11:53:24.444Z,3.42
2018-04-01T12:03:00.884Z,3.42
2018-04-01T12:12:37.418Z,3.42
2018-04-01T12:22:13.978Z,3.42
2018-04-01T12:31:50.480Z,3.42
2018-04-01T12:41:27.068Z,3.42
2018-04-01T12:51:09.371Z,3.43
2018-04-01T13:00:38.625Z,3.42
2018-04-01T13:10:16.831Z,3.43
2018-04-01T13:19:55.091Z,3.42
2018-04-01T13:29:30.280Z,3.42
2018-04-01T13:39:07.717Z,3.42
2018-04-01T13:48:40.940Z,3.42
2018-04-01T13:58:18.652Z,3.42
2018-04-01T14:08:03.858Z,3.43
2018-04-01T14:17:41.609Z,3.43
2018-04-01T14:27:26.576Z,3.43
2018-04-01T14:36:59.272Z,3.43
2018-04-01T14:46:29.010Z,3.42
2018-04-01T14:56:05.411Z,3.43
2018-04-01T15:05:46.652Z,3.43
2018-04-01T15:15:12.505Z,3.43
2018-04-01T15:24:45.647Z,3.42
2018-04-01T15:34:19.868Z,3.42
2018-04-01T15:43:54.687Z,3.42
2018-04-01T15:53:31.556Z,3.42
2018-04-01T16:03:06.230Z,3.42
2018-04-01T16:12:42.168Z,3.42
2018-04-01T16:22:21.875Z,3.43
2018-04-01T16:31:53.535Z,3.44
2018-04-01T16:41:21.018Z,3.43
2018-04-01T16:51:01.174Z,3.43
2018-04-01T17:00:28.658Z,3.43
2018-04-01T17:10:05.021Z,3.43
2018-04-01T17:19:40.758Z,3.43
2018-04-01T17:29:17.179Z,3.42
2018-04-01T17:38:53.566Z,3.42
2018-04-01T17:48:34.011Z,3.42
2018-04-01T17:58:01.615Z,3.42
2018-04-01T18:07:37.661Z,3.42
2018-04-01T18:17:14.142Z,3.42
2018-04-01T18:26:51.464Z,3.42
2018-04-01T18:36:27.538Z,3.41
2018-04-01T18:46:03.067Z,3.41
2018-04-01T18:55:38.569Z,3.41
2018-04-01T19:05:14.861Z,3.41
2018-04-01T19:14:51.658Z,3.41
2018-04-01T19:24:28.675Z,3.41
2018-04-01T19:34:05.108Z,3.41
2018-04-01T19:43:41.216Z,3.41
2018-04-01T19:53:17.139Z,3.40
2018-04-01T20:02:53.669Z,3.40
2018-04-01T20:12:30.195Z,3.40
2018-04-01T20:22:07.275Z,3.40
2018-04-01T20:31:44.186Z,3.40
2018-04-01T20:41:20.415Z,3.40
2018-04-01T20:50:57.321Z,3.40
2018-04-01T21:00:34.060Z,3.40
2018-04-01T21:10:10.199Z,3.40
2018-04-01T21:19:46.861Z,3.40
2018-04-01T21:29:23.556Z,3.40
2018-04-01T21:38:59.555Z,3.40
2018-04-01T21:48:35.708Z,3.40
2018-04-01T21:58:11.953Z,3.40
2018-04-01T22:07:46.720Z,3.40
2018-04-01T22:17:22.958Z,3.40
2018-04-01T22:26:59.328Z,3.40
2018-04-01T22:36:35.861Z,3.40
2018-04-01T22:46:30.721Z,3.39
2018-04-01T22:56:07.857Z,3.40
2018-04-01T23:05:45.987Z,3.40
2018-04-01T23:15:21.806Z,3.40
2018-04-01T23:24:58.612Z,3.40
2018-04-01T23:34:35.092Z,3.40
2018-04-01T23:44:11.830Z,3.40
2018-04-01T23:53:48.424Z,3.40
